Time;durP1;ratioP1;P1;durP2;ratioP2;P2;SDS_P1;SDS_P2;PMS_P1;PMS_P2;Temp;Humidity;BMP_temperature;BMP_pressure;BME280_temperature;BME280_humidity;BME280_pressure;Samples;Min_cycle;Max_cycle;Signal;HPM_P1;HPM_P2
2022/03/23 00:01:18;;;;;;;21.13;4.27;;;;;;;-143.84;84.32;45117.63;5073635;28;20445;-70
2022/03/23 00:03:46;;;;;;;11.70;3.90;;;;;;;-143.84;83.82;45100.47;5073570;28;20946;-70
2022/03/23 00:06:14;;;;;;;11.33;4.43;;;;;;;-143.84;83.66;45087.16;5073365;28;20568;-70
2022/03/23 00:08:42;;;;;;;12.43;4.70;;;;;;;-143.84;83.91;45085.25;5074031;28;20433;-70
2022/03/23 00:11:09;;;;;;;6.27;3.27;;;;;;;-143.84;83.60;45083.34;5073403;28;20447;-70
2022/03/23 00:13:36;;;;;;;13.63;4.90;;;;;;;-143.84;83.75;45102.38;5073173;28;20436;-70
2022/03/23 00:16:05;;;;;;;11.93;4.50;;;;;;;-143.84;84.10;45081.44;5073732;28;20917;-70
2022/03/23 00:18:32;;;;;;;13.63;4.27;;;;;;;-143.84;83.63;45110.00;5073323;28;20960;-70
2022/03/23 00:21:00;;;;;;;11.57;4.27;;;;;;;-143.84;83.96;45098.56;5073537;28;20436;-70
2022/03/23 00:23:27;;;;;;;9.70;3.80;;;;;;;-143.84;83.22;45090.97;5073085;28;21127;-70
2022/03/23 00:25:54;;;;;;;10.77;4.37;;;;;;;-143.84;83.41;45098.56;5073238;28;20541;-69
2022/03/23 00:28:21;;;;;;;9.70;3.90;;;;;;;-143.84;83.88;45113.81;5073370;28;20433;-70
2022/03/23 00:30:50;;;;;;;14.30;3.90;;;;;;;-143.84;83.54;45098.56;5073635;28;20441;-70
2022/03/23 00:33:18;;;;;;;12.30;4.67;;;;;;;-143.84;83.44;45102.38;5072912;28;20475;-70
2022/03/23 00:35:46;;;;;;;15.63;4.60;;;;;;;-143.84;84.04;45094.78;5072379;28;20458;-70
2022/03/23 00:38:14;;;;;;;10.10;4.03;;;;;;;-143.84;83.92;45110.00;5072659;28;20443;-70
2022/03/23 00:40:41;;;;;;;16.20;3.77;;;;;;;-143.84;84.23;45098.56;5072909;28;20497;-70
2022/03/23 00:43:08;;;;;;;9.03;3.90;;;;;;;-143.84;83.99;45136.66;5073025;28;20443;-70
2022/03/23 00:45:35;;;;;;;15.60;4.03;;;;;;;-143.84;84.58;45090.97;5072824;28;20974;-70
2022/03/23 00:48:03;;;;;;;10.40;3.70;;;;;;;-143.84;84.63;45104.28;5072274;28;20575;-70
2022/03/23 00:50:33;;;;;;;4.87;3.60;;;;;;;-143.84;84.66;45090.97;5072625;28;20449;-70
2022/03/23 00:53:01;;;;;;;10.67;4.93;;;;;;;-143.84;84.48;45115.72;5072530;28;20459;-70
2022/03/23 00:55:28;;;;;;;13.77;4.10;;;;;;;-143.84;84.70;45106.19;5072749;28;20950;-70
2022/03/23 00:57:55;;;;;;;27.73;5.17;;;;;;;-143.84;85.33;45102.38;5072628;28;20502;-70
2022/03/23 01:00:22;;;;;;;12.67;3.90;;;;;;;-143.84;85.17;45119.53;5072436;28;20996;-70
2022/03/23 01:02:50;;;;;;;11.00;4.73;;;;;;;-143.84;85.50;45108.09;5072483;28;20506;-70
2022/03/23 01:05:17;;;;;;;7.33;3.60;;;;;;;-143.84;85.65;45108.09;5072541;28;20481;-70
2022/03/23 01:07:46;;;;;;;9.17;4.03;;;;;;;-143.84;86.57;45117.63;5072244;28;20726;-70
2022/03/23 01:10:16;;;;;;;12.50;4.60;;;;;;;-143.84;86.68;45104.28;5072601;28;20510;-70
2022/03/23 01:12:45;;;;;;;6.27;3.70;;;;;;;-143.84;86.71;45106.19;5072509;28;20490;-70
2022/03/23 01:15:14;;;;;;;14.03;4.50;;;;;;;-143.84;86.89;45081.44;5072161;28;20439;-70
2022/03/23 01:17:41;;;;;;;13.97;5.13;;;;;;;-143.84;87.05;45132.84;5072568;28;20518;-70
2022/03/23 01:20:10;;;;;;;12.17;4.77;;;;;;;-143.84;87.64;45094.78;5072203;28;20858;-70
2022/03/23 01:22:38;;;;;;;10.67;4.07;;;;;;;-143.84;88.00;45087.16;5072257;28;21333;-70
2022/03/23 01:25:09;;;;;;;13.10;4.20;;;;;;;-143.84;87.85;45102.38;5071986;28;20910;-70
2022/03/23 01:27:37;;;;;;;14.57;5.10;;;;;;;-143.84;87.96;45110.00;5072129;28;20448;-70
2022/03/23 01:30:06;;;;;;;12.73;4.90;;;;;;;-143.84;88.38;45130.94;5072311;28;20437;-70
2022/03/23 01:32:33;;;;;;;11.10;5.67;;;;;;;-143.84;88.67;45111.91;5071886;28;20820;-70
2022/03/23 01:35:00;;;;;;;29.00;5.30;;;;;;;-143.84;89.58;45106.19;5071912;28;20510;-70
2022/03/23 01:37:27;;;;;;;11.70;5.00;;;;;;;-143.84;89.45;45117.63;5072302;28;20441;-70
2022/03/23 01:39:55;;;;;;;10.70;4.17;;;;;;;-143.84;90.07;45098.56;5072146;28;20437;-70
2022/03/23 01:42:23;;;;;;;19.67;4.60;;;;;;;-143.84;90.08;45100.47;5072078;28;20525;-70
2022/03/23 01:44:50;;;;;;;18.23;6.07;;;;;;;-143.84;90.06;45121.44;5071492;28;20477;-70
2022/03/23 01:47:18;;;;;;;12.27;5.37;;;;;;;-143.84;90.49;45117.63;5072110;28;20793;-69
2022/03/23 01:49:48;;;;;;;11.30;5.30;;;;;;;-143.84;90.27;45100.47;5071841;28;20488;-69
2022/03/23 01:52:17;;;;;;;24.30;5.90;;;;;;;-143.84;90.58;45111.91;5071835;28;20509;-70
2022/03/23 01:54:45;;;;;;;18.83;5.20;;;;;;;-143.84;90.83;45081.44;5071434;28;20441;-70
2022/03/23 01:57:15;;;;;;;12.50;4.90;;;;;;;-143.84;90.74;45090.97;5071392;28;20445;-69
2022/03/23 01:59:44;;;;;;;9.83;5.40;;;;;;;-143.84;90.43;45087.16;5071921;28;20477;-70
2022/03/23 02:02:12;;;;;;;20.50;5.83;;;;;;;-143.84;90.70;45129.03;5071923;28;20859;-69
2022/03/23 02:04:39;;;;;;;14.87;5.00;;;;;;;-143.84;90.66;45083.34;5071097;28;20777;-70
2022/03/23 02:07:07;;;;;;;18.33;5.30;;;;;;;-143.84;91.06;45098.56;5071159;28;20437;-69
2022/03/23 02:09:34;;;;;;;12.13;6.07;;;;;;;-143.84;90.63;45090.97;5071198;28;20510;-70
2022/03/23 02:12:02;;;;;;;10.20;5.50;;;;;;;-143.84;90.53;45111.91;5071453;28;20502;-70
2022/03/23 02:14:30;;;;;;;20.30;5.07;;;;;;;-143.84;91.17;45096.66;5070739;28;20922;-70
2022/03/23 02:16:58;;;;;;;18.50;5.20;;;;;;;-143.84;90.61;45110.00;5071513;28;20456;-70
2022/03/23 02:19:25;;;;;;;16.57;5.33;;;;;;;-143.84;91.02;45098.56;5071192;28;20874;-70
2022/03/23 02:21:54;;;;;;;24.60;5.77;;;;;;;-143.84;91.22;45100.47;5070801;28;20497;-70
2022/03/23 02:24:25;;;;;;;17.33;7.37;;;;;;;-143.84;90.88;45121.44;5071124;28;20452;-70
2022/03/23 02:26:52;;;;;;;12.13;5.50;;;;;;;-143.84;90.96;45115.72;5071216;28;20484;-70
2022/03/23 02:29:20;;;;;;;12.23;5.23;;;;;;;-143.84;91.00;45125.22;5070883;28;20502;-70
2022/03/23 02:31:48;;;;;;;28.97;6.47;;;;;;;-143.84;91.53;45083.34;5070870;28;20444;-70
2022/03/23 02:34:15;;;;;;;20.80;6.53;;;;;;;-143.84;91.44;45085.25;5070861;28;20437;-70
2022/03/23 02:36:42;;;;;;;13.83;5.80;;;;;;;-143.84;91.66;45081.44;5070924;28;20441;-70
2022/03/23 02:39:10;;;;;;;13.20;6.60;;;;;;;-143.84;91.80;45087.16;5071229;28;20824;-70
2022/03/23 02:41:39;;;;;;;10.93;5.50;;;;;;;-143.84;91.26;45098.56;5070492;28;20440;-70
2022/03/23 02:44:07;;;;;;;10.37;5.23;;;;;;;-143.84;91.49;45096.66;5070582;28;20816;-70
2022/03/23 02:46:35;;;;;;;8.70;5.23;;;;;;;-143.84;91.56;45108.09;5070509;28;20495;-69
2022/03/23 02:49:03;;;;;;;10.27;6.03;;;;;;;-143.84;91.66;45113.81;5070229;28;20493;-70
2022/03/23 02:51:31;;;;;;;6.73;5.97;;;;;;;-143.84;90.95;45110.00;5070624;28;20532;-70
2022/03/23 03:02:29;;;;;;;12.37;5.77;;;;;;;-143.84;90.26;45092.88;5070420;28;20442;-70
2022/03/23 03:04:56;;;;;;;23.33;5.43;;;;;;;-143.84;90.68;45087.16;5070120;28;20807;-70
2022/03/23 03:07:24;;;;;;;9.63;5.23;;;;;;;-143.84;90.24;45090.97;5068645;28;20445;-70
2022/03/23 03:09:51;;;;;;;11.80;5.30;;;;;;;-143.84;90.48;45089.06;5069330;28;21001;-70
2022/03/23 03:12:19;;;;;;;11.80;5.60;;;;;;;-143.84;90.06;45100.47;5069818;28;20448;-70
2022/03/23 03:14:47;;;;;;;10.30;5.83;;;;;;;-143.84;89.84;45125.22;5070071;28;20859;-70
2022/03/23 03:17:14;;;;;;;16.90;6.50;;;;;;;-143.84;89.94;45096.66;5070391;28;20446;-70
2022/03/23 03:19:41;;;;;;;8.40;5.63;;;;;;;-143.84;89.51;45115.72;5070137;28;20441;-70
2022/03/23 03:22:08;;;;;;;7.30;5.23;;;;;;;-143.84;89.06;45094.78;5057234;28;20949;-70
2022/03/23 03:24:37;;;;;;;13.13;5.47;;;;;;;-143.84;89.00;45117.63;5050326;28;20936;-69
2022/03/23 03:27:04;;;;;;;12.90;5.20;;;;;;;-143.84;88.72;45098.56;5049266;28;20502;-71
2022/03/23 03:29:33;;;;;;;11.03;5.90;;;;;;;-143.84;88.97;45104.28;5049664;28;20442;-70
2022/03/23 03:32:00;;;;;;;10.43;6.97;;;;;;;-143.84;87.98;45115.72;5044714;28;20447;-69
2022/03/23 03:34:27;;;;;;;8.93;5.80;;;;;;;-143.84;87.85;45121.44;5052569;28;20451;-69
2022/03/23 03:36:54;;;;;;;12.83;5.20;;;;;;;-143.84;87.72;45102.38;5041423;28;20551;-70
2022/03/23 03:39:21;;;;;;;12.13;5.30;;;;;;;-143.84;87.50;45119.53;5033823;28;20518;-69
2022/03/23 03:41:48;;;;;;;18.37;6.40;;;;;;;-143.84;87.02;45110.00;5044619;28;20448;-69
2022/03/23 03:44:15;;;;;;;13.07;5.50;;;;;;;-143.84;87.05;45110.00;5042769;28;20532;-69
2022/03/23 03:46:45;;;;;;;11.90;6.00;;;;;;;-143.84;87.05;45085.25;5039719;28;21012;-70
2022/03/23 03:49:15;;;;;;;11.20;5.80;;;;;;;-143.84;86.87;45098.56;5029128;28;20905;-72
2022/03/23 03:51:42;;;;;;;8.00;6.30;;;;;;;-143.84;86.70;45129.03;5021515;28;20448;-69
2022/03/23 03:54:09;;;;;;;24.07;5.70;;;;;;;-143.84;86.03;45140.47;5021264;28;21036;-70
2022/03/23 03:56:36;;;;;;;16.33;5.83;;;;;;;-143.84;86.40;45106.19;5034270;28;20491;-68
2022/03/23 03:59:04;;;;;;;10.40;5.27;;;;;;;-143.84;85.45;45125.22;5025077;28;20446;-69
2022/03/23 04:01:31;;;;;;;15.63;5.90;;;;;;;-143.84;86.00;45119.53;5024926;28;20453;-69
2022/03/23 04:04:00;;;;;;;9.13;5.60;;;;;;;-143.84;85.15;45113.81;5021111;28;20511;-70
2022/03/23 04:06:27;;;;;;;13.97;5.63;;;;;;;-143.84;85.46;45113.81;5028266;28;20470;-68
2022/03/23 04:08:54;;;;;;;11.70;5.60;;;;;;;-143.84;84.57;45094.78;5025390;28;20519;-70
2022/03/23 04:11:21;;;;;;;18.10;6.67;;;;;;;-143.84;84.56;45123.34;5025516;28;20533;-69
2022/03/23 04:13:48;;;;;;;9.37;5.60;;;;;;;-143.84;84.66;45110.00;5033357;28;20450;-70
2022/03/23 04:16:15;;;;;;;12.30;5.87;;;;;;;-143.84;84.86;45129.03;5018748;28;20443;-69
2022/03/23 04:18:42;;;;;;;6.50;5.10;;;;;;;-143.84;84.12;45106.19;5023512;28;20505;-71
2022/03/23 04:21:11;;;;;;;12.80;5.67;;;;;;;-143.84;84.15;45111.91;5017304;28;20451;-69
2022/03/23 04:23:38;;;;;;;8.00;6.10;;;;;;;-143.84;83.41;45129.03;5015877;28;20945;-69
2022/03/23 04:26:06;;;;;;;6.50;4.83;;;;;;;-143.84;85.90;45111.91;5017791;28;20557;-72
2022/03/23 04:28:33;;;;;;;9.60;5.07;;;;;;;-143.84;83.47;45115.72;5014169;28;21823;-69
2022/03/23 04:31:01;;;;;;;4.97;4.57;;;;;;;-143.84;82.97;45123.34;5023501;28;20447;-68
2022/03/23 04:33:28;;;;;;;11.63;5.27;;;;;;;-143.84;82.18;45127.13;5027271;28;20487;-69
2022/03/23 04:35:56;;;;;;;8.33;5.10;;;;;;;-143.84;82.44;45148.09;5017059;28;20452;-68
2022/03/23 04:38:25;;;;;;;11.03;5.57;;;;;;;-143.84;81.75;45111.91;5021910;28;21105;-70
2022/03/23 04:40:52;;;;;;;12.20;5.50;;;;;;;-143.84;81.57;45132.84;5020952;28;20513;-69
2022/03/23 04:43:19;;;;;;;9.13;4.83;;;;;;;-143.84;81.28;45127.13;5023842;28;20438;-69
2022/03/23 04:45:46;;;;;;;15.20;5.20;;;;;;;-143.84;80.79;45106.19;5021407;28;20478;-69
2022/03/23 04:48:13;;;;;;;7.33;4.60;;;;;;;-143.84;80.50;45104.28;5024567;28;20485;-69
2022/03/23 04:50:41;;;;;;;5.57;4.60;;;;;;;-143.84;80.12;45142.38;5035926;28;20451;-68
2022/03/23 04:53:08;;;;;;;10.23;4.97;;;;;;;-143.84;79.57;45102.38;5043501;28;20446;-67
2022/03/23 04:55:37;;;;;;;13.33;3.90;;;;;;;-143.84;79.14;45123.34;5035979;28;20508;-68
2022/03/23 04:58:05;;;;;;;7.57;3.87;;;;;;;-143.84;78.80;45108.09;5042547;28;20448;-68
2022/03/23 05:00:33;;;;;;;8.63;4.43;;;;;;;-143.84;77.87;45123.34;5052145;28;20450;-67
2022/03/23 05:03:00;;;;;;;9.33;4.20;;;;;;;-143.84;77.49;45089.06;5051659;28;20535;-69
2022/03/23 05:05:27;;;;;;;5.87;4.27;;;;;;;-143.84;75.01;45119.53;5051533;28;20511;-67
2022/03/23 05:07:54;;;;;;;8.70;4.20;;;;;;;-143.84;72.05;45140.47;5052253;28;20446;-69
2022/03/23 05:10:21;;;;;;;10.43;3.97;;;;;;;-143.84;69.53;45106.19;5052621;28;20966;-68
2022/03/23 05:12:51;;;;;;;6.80;3.50;;;;;;;-143.84;67.16;45130.94;5052192;28;20977;-68
2022/03/23 05:15:19;;;;;;;7.53;3.90;;;;;;;-143.84;65.73;45100.47;5052299;28;20461;-68
2022/03/23 05:17:46;;;;;;;9.60;3.53;;;;;;;-143.84;63.82;45085.25;5052301;28;20450;-68
2022/03/23 05:20:15;;;;;;;9.20;4.03;;;;;;;-143.84;62.71;45098.56;5052065;28;20442;-68
2022/03/23 05:22:42;;;;;;;8.30;3.70;;;;;;;-143.84;60.84;45098.56;5052007;28;20521;-68
2022/03/23 05:25:10;;;;;;;8.37;3.80;;;;;;;-143.84;59.84;45087.16;5051794;28;20446;-68
2022/03/23 05:27:38;;;;;;;7.13;3.70;;;;;;;-143.84;58.51;45092.88;5051945;28;20481;-68
2022/03/23 05:30:10;;;;;;;10.87;4.23;;;;;;;-143.84;57.45;45085.25;5052114;28;20452;-68
2022/03/23 05:32:39;;;;;;;9.30;5.00;;;;;;;-143.84;56.19;45121.44;5051984;28;20446;-68
2022/03/23 05:35:08;;;;;;;4.07;3.13;;;;;;;-143.84;55.49;45094.78;5051876;28;20442;-68
2022/03/23 05:37:35;;;;;;;6.20;4.00;;;;;;;-143.84;54.50;45077.63;5051968;28;20437;-68
2022/03/23 05:40:02;;;;;;;8.17;3.90;;;;;;;-143.84;54.03;45064.31;5051777;28;20873;-68
2022/03/23 05:42:29;;;;;;;6.00;4.07;;;;;;;-143.84;52.70;45083.34;5052155;28;20441;-68
2022/03/23 05:44:57;;;;;;;8.20;4.70;;;;;;;-143.84;52.38;45077.63;5051805;28;20445;-68
2022/03/23 05:47:25;;;;;;;7.90;3.17;;;;;;;-143.84;50.98;45102.38;5051455;28;20470;-68
2022/03/23 05:49:52;;;;;;;4.10;3.37;;;;;;;-143.84;49.71;45083.34;5050262;28;20489;-68
2022/03/23 05:52:19;;;;;;;6.53;3.63;;;;;;;-143.84;49.42;45090.97;5051510;28;20445;-68
2022/03/23 05:54:46;;;;;;;9.43;3.80;;;;;;;-143.84;48.46;45060.50;5051493;28;20476;-68
2022/03/23 05:57:13;;;;;;;6.97;4.23;;;;;;;-143.84;47.94;45056.69;5051782;28;20927;-68
2022/03/23 05:59:41;;;;;;;8.53;3.80;;;;;;;-143.84;47.68;45071.91;5051535;28;20482;-68
2022/03/23 06:02:08;;;;;;;6.80;3.67;;;;;;;-143.84;47.25;45087.16;5051201;28;20915;-69
2022/03/23 06:04:36;;;;;;;4.60;3.30;;;;;;;-143.84;46.35;45083.34;5051144;28;20430;-68
2022/03/23 06:07:04;;;;;;;4.97;3.83;;;;;;;-143.84;45.23;45071.91;5051226;28;20478;-68
2022/03/23 06:09:31;;;;;;;5.47;3.43;;;;;;;-143.84;45.32;45052.88;5051508;28;20830;-68
2022/03/23 06:11:58;;;;;;;5.57;3.90;;;;;;;-143.84;44.55;45077.63;5051530;28;20438;-69
2022/03/23 06:14:25;;;;;;;9.50;4.83;;;;;;;-143.84;43.39;45056.69;5050951;28;20438;-68
2022/03/23 06:16:52;;;;;;;8.00;4.10;;;;;;;-143.84;43.48;45054.78;5050544;28;20425;-68
2022/03/23 06:19:19;;;;;;;5.47;3.73;;;;;;;-143.84;43.73;45031.94;5050861;28;20441;-68
2022/03/23 06:21:48;;;;;;;5.90;4.33;;;;;;;-143.84;43.08;45077.63;5050392;28;20443;-69
2022/03/23 06:24:15;;;;;;;5.03;3.50;;;;;;;-143.84;42.37;45054.78;5050828;28;20882;-69
2022/03/23 06:26:42;;;;;;;7.73;4.00;;;;;;;-143.84;41.32;45070.00;5050737;28;20484;-69
2022/03/23 06:29:10;;;;;;;3.30;3.00;;;;;;;-143.84;40.98;45071.91;5050775;28;20443;-69
2022/03/23 06:31:37;;;;;;;12.30;3.80;;;;;;;-143.84;39.98;45066.22;5050563;28;20950;-69
2022/03/23 06:34:04;;;;;;;9.93;3.57;;;;;;;-143.84;39.70;45062.41;5050555;28;20440;-69
2022/03/23 06:36:31;;;;;;;3.87;3.57;;;;;;;-143.84;39.57;45049.06;5050371;28;20443;-69
2022/03/23 06:39:00;;;;;;;6.27;3.60;;;;;;;-143.84;39.03;45060.50;5050591;28;20691;-69
2022/03/23 06:41:27;;;;;;;6.50;3.90;;;;;;;-143.84;38.67;45026.22;5050058;28;20443;-68
2022/03/23 06:43:54;;;;;;;6.97;3.90;;;;;;;-143.84;37.82;45047.16;5050509;28;20510;-69
2022/03/23 06:46:22;;;;;;;4.37;3.60;;;;;;;-143.84;37.90;45085.25;5050070;28;20478;-69
2022/03/23 06:48:49;;;;;;;14.27;3.50;;;;;;;-143.84;37.04;45075.72;5049786;28;20483;-69
2022/03/23 06:51:17;;;;;;;5.77;3.20;;;;;;;-143.84;37.43;45052.88;5050012;28;21012;-69
2022/03/23 06:53:44;;;;;;;5.73;3.77;;;;;;;-143.84;36.97;45049.06;5049868;28;20455;-69
2022/03/23 06:56:13;;;;;;;10.30;3.70;;;;;;;-143.84;36.71;45054.78;5050280;28;20448;-69
2022/03/23 06:58:40;;;;;;;13.40;3.97;;;;;;;-143.84;36.26;45035.75;5050152;28;20444;-69
2022/03/23 07:01:07;;;;;;;9.60;3.07;;;;;;;-143.84;35.17;45024.31;5050022;28;20447;-69
2022/03/23 07:03:34;;;;;;;3.10;2.80;;;;;;;-143.84;34.59;45047.16;5050299;28;20452;-69
2022/03/23 07:06:01;;;;;;;9.23;3.10;;;;;;;-143.84;34.60;45052.88;5050085;28;20453;-69
2022/03/23 07:11:09;;;;;;;27.17;5.03;;;;;;;-143.84;33.65;45007.19;5016185;28;20448;-69
2022/03/23 07:13:38;;;;;;;9.17;2.80;;;;;;;-143.84;33.30;45024.31;5050110;28;20495;-69
2022/03/23 07:16:05;;;;;;;5.57;3.03;;;;;;;-143.84;33.71;45047.16;5050071;28;20452;-69
2022/03/23 07:18:32;;;;;;;9.03;2.70;;;;;;;-143.84;33.38;45087.16;5049970;28;20984;-69
2022/03/23 07:21:00;;;;;;;4.80;2.90;;;;;;;-143.84;33.01;45005.28;5049955;28;20783;-69
2022/03/23 07:23:28;;;;;;;7.33;3.00;;;;;;;-143.84;32.90;45052.88;5049558;28;20438;-69
2022/03/23 07:25:55;;;;;;;6.70;3.53;;;;;;;-143.84;32.38;45047.16;5049195;28;20436;-69
2022/03/23 07:28:22;;;;;;;5.50;2.87;;;;;;;-143.84;32.26;45037.66;5050025;28;20492;-69
2022/03/23 07:30:50;;;;;;;11.03;3.13;;;;;;;-143.84;32.09;45037.66;5049807;28;20441;-69
2022/03/23 07:33:18;;;;;;;7.77;3.00;;;;;;;-143.84;31.00;45035.75;5049863;28;21035;-69
2022/03/23 07:35:45;;;;;;;16.93;2.80;;;;;;;-143.84;30.86;45052.88;5049785;28;20506;-69
2022/03/23 07:38:12;;;;;;;12.70;2.40;;;;;;;-143.84;29.38;45037.66;5049429;28;20452;-69
2022/03/23 07:40:39;;;;;;;12.90;4.00;;;;;;;-143.84;29.74;45026.22;5050267;28;20441;-69
2022/03/23 07:43:07;;;;;;;9.00;2.57;;;;;;;-143.84;29.90;45024.31;5049622;28;20931;-69
2022/03/23 07:45:34;;;;;;;10.53;3.40;;;;;;;-143.84;29.40;45035.75;5049523;28;20449;-69
2022/03/23 07:48:02;;;;;;;6.60;3.20;;;;;;;-143.84;29.51;45039.53;5049568;28;20587;-69
2022/03/23 07:50:30;;;;;;;7.33;2.43;;;;;;;-143.84;29.36;45047.16;5050228;28;20804;-69
2022/03/23 07:52:57;;;;;;;8.63;2.40;;;;;;;-143.84;29.27;45047.16;5049645;28;20441;-69
2022/03/23 07:55:25;;;;;;;10.33;2.63;;;;;;;-143.84;29.62;45035.75;5049430;28;20450;-69
2022/03/23 07:57:52;;;;;;;5.33;2.80;;;;;;;-143.84;30.14;45005.28;5050006;28;20483;-69
2022/03/23 08:00:21;;;;;;;8.60;2.77;;;;;;;-143.84;29.47;45045.25;5049958;28;20448;-69
2022/03/23 08:02:50;;;;;;;10.93;3.10;;;;;;;-143.84;29.12;45033.84;5049897;28;20535;-69
2022/03/23 08:05:19;;;;;;;13.90;3.43;;;;;;;-143.84;29.49;45024.31;5032630;28;20874;-69
2022/03/23 08:07:46;;;;;;;5.40;2.83;;;;;;;-143.84;29.56;45014.78;5049190;28;20480;-69
2022/03/23 08:10:13;;;;;;;4.43;2.77;;;;;;;-143.84;29.28;45003.38;5050153;28;20537;-69
2022/03/23 08:12:40;;;;;;;8.90;2.50;;;;;;;-143.84;29.28;45030.03;5051146;28;20529;-69
2022/03/23 08:15:09;;;;;;;5.43;3.07;;;;;;;-143.84;29.01;45028.13;5053699;28;20505;-69
2022/03/23 08:17:38;;;;;;;9.30;2.90;;;;;;;-143.84;29.09;45016.69;5053150;28;20447;-69
2022/03/23 08:22:53;;;;;;;10.07;2.90;;;;;;;-143.84;28.59;45030.03;5053730;28;20440;-69
2022/03/23 08:25:21;;;;;;;23.70;3.77;;;;;;;-143.84;28.70;45007.19;5053310;28;20687;-69
2022/03/23 08:27:49;;;;;;;5.90;3.20;;;;;;;-143.84;28.46;45010.97;5053098;28;20473;-69
2022/03/23 08:30:16;;;;;;;8.63;2.80;;;;;;;-143.84;28.99;45003.38;5053122;28;20941;-69
2022/03/23 08:32:43;;;;;;;6.83;2.70;;;;;;;-143.84;28.71;44999.56;5053021;28;20438;-69
2022/03/23 08:35:10;;;;;;;3.97;2.57;;;;;;;-143.84;28.54;45018.59;5053261;28;20471;-69
2022/03/23 08:37:39;;;;;;;33.10;3.20;;;;;;;-143.84;27.84;45033.84;5052707;28;20507;-69
2022/03/23 08:40:08;;;;;;;11.00;2.63;;;;;;;-143.84;27.82;45035.75;5052676;28;20509;-69
2022/03/23 08:42:36;;;;;;;16.03;2.67;;;;;;;-143.84;27.92;45033.84;5052775;28;20442;-69
2022/03/23 08:45:04;;;;;;;20.33;2.83;;;;;;;-143.84;27.76;45005.28;5052545;28;20456;-69
2022/03/23 08:47:31;;;;;;;9.87;2.30;;;;;;;-143.84;27.79;45030.03;5052705;28;20486;-69
2022/03/23 08:49:58;;;;;;;12.63;2.93;;;;;;;-143.84;28.15;45020.50;5052445;28;20484;-69
2022/03/23 08:52:28;;;;;;;12.93;2.40;;;;;;;-143.84;27.27;44999.56;5052702;28;20437;-69
2022/03/23 08:54:55;;;;;;;10.37;2.80;;;;;;;-143.84;27.19;45003.38;5052435;28;20476;-69
2022/03/23 08:57:24;;;;;;;12.60;2.30;;;;;;;-143.84;27.73;44999.56;5052371;28;20522;-69
2022/03/23 08:59:51;;;;;;;13.43;2.30;;;;;;;-143.84;27.71;45026.22;5051963;28;20506;-69
2022/03/23 09:02:18;;;;;;;23.17;3.33;;;;;;;-143.84;28.71;45001.47;5052422;28;20453;-69
2022/03/23 09:04:46;;;;;;;14.17;2.30;;;;;;;-143.84;28.49;45009.09;5052114;28;20444;-69
2022/03/23 09:07:13;;;;;;;21.97;3.47;;;;;;;-143.84;27.89;45020.50;5052256;28;20515;-69
2022/03/23 09:09:40;;;;;;;17.80;3.40;;;;;;;-143.84;28.53;45005.28;5052561;28;20459;-69
2022/03/23 09:12:09;;;;;;;9.60;2.40;;;;;;;-143.84;28.33;45037.66;5051978;28;20492;-69
2022/03/23 09:14:37;;;;;;;4.50;2.00;;;;;;;-143.84;28.75;45014.78;5051708;28;20438;-69
2022/03/23 09:17:05;;;;;;;13.47;2.63;;;;;;;-143.84;28.58;45010.97;5051990;28;20524;-69
2022/03/23 09:19:33;;;;;;;30.20;3.57;;;;;;;-143.84;28.42;45003.38;5051647;28;20447;-69
2022/03/23 09:22:00;;;;;;;24.27;3.50;;;;;;;-143.84;28.20;45022.41;5051486;28;20557;-69
2022/03/23 09:24:27;;;;;;;25.77;3.00;;;;;;;-143.84;28.96;45016.69;5050566;28;20437;-69
2022/03/23 09:26:55;;;;;;;21.70;2.77;;;;;;;-143.84;28.62;45012.88;5051594;28;20500;-69
2022/03/23 09:29:22;;;;;;;32.30;3.60;;;;;;;-143.84;29.13;45018.59;5051771;28;20459;-69
2022/03/23 09:31:51;;;;;;;18.27;3.00;;;;;;;-143.84;28.31;45009.09;5051549;28;20438;-69
2022/03/23 09:34:18;;;;;;;15.73;2.67;;;;;;;-143.84;28.20;45041.44;5051644;28;20521;-69
2022/03/23 09:39:30;;;;;;;12.90;3.17;;;;;;;-143.84;29.06;45018.59;5051797;28;20428;-69
2022/03/23 09:41:59;;;;;;;24.90;3.33;;;;;;;-143.84;28.06;45007.19;5051070;28;20440;-69
2022/03/23 09:44:28;;;;;;;32.93;2.97;;;;;;;-143.84;28.62;45033.84;5051461;28;20448;-69
2022/03/23 09:46:58;;;;;;;18.57;2.83;;;;;;;-143.84;29.12;45010.97;5051235;28;20432;-69
2022/03/23 09:49:25;;;;;;;28.77;4.10;;;;;;;-143.84;29.09;45033.84;5051610;28;20895;-69
2022/03/23 09:51:53;;;;;;;6.10;2.70;;;;;;;-143.84;29.46;45024.31;5051392;28;20445;-69
2022/03/23 09:54:22;;;;;;;12.83;3.40;;;;;;;-143.84;29.23;45049.06;5051108;28;20938;-69
2022/03/23 09:56:49;;;;;;;18.93;2.83;;;;;;;-143.84;29.76;45033.84;5051385;28;20462;-69
2022/03/23 09:59:16;;;;;;;11.30;2.77;;;;;;;-143.84;29.91;45024.31;5051258;28;20483;-69
2022/03/23 10:02:26;;;;;;;10.50;4.20;;;;;;;-143.84;30.46;45035.75;5050768;28;20507;-69
2022/03/23 10:05:44;;;;;;;16.03;3.23;;;;;;;-143.84;30.13;45030.03;5051489;28;20830;-69
2022/03/23 10:09:02;;;;;;;15.30;2.80;;;;;;;-143.84;29.30;45024.31;5051174;28;20515;-69
2022/03/23 10:12:01;;;;;;;20.67;3.83;;;;;;;-143.84;29.43;45007.19;5046818;28;20445;-69
2022/03/23 10:15:06;;;;;;;16.90;3.37;;;;;;;-143.84;29.17;45020.50;5025299;28;20457;-69
2022/03/23 10:18:09;;;;;;;12.67;2.57;;;;;;;-143.84;28.89;45030.03;5051093;28;20938;-69
2022/03/23 10:20:37;;;;;;;11.80;2.67;;;;;;;-143.84;28.65;45014.78;5050799;28;20513;-69
2022/03/23 10:23:06;;;;;;;31.87;3.13;;;;;;;-143.84;28.15;45003.38;5051137;28;20447;-69
2022/03/23 10:25:35;;;;;;;8.97;2.40;;;;;;;-143.84;29.42;45010.97;5050916;28;20448;-69
2022/03/23 10:28:13;;;;;;;12.73;3.00;;;;;;;-143.84;29.84;45007.19;5050647;28;20908;-69
2022/03/23 10:30:41;;;;;;;10.20;2.80;;;;;;;-143.84;28.66;45035.75;5050816;28;20465;-69
2022/03/23 10:33:18;;;;;;;7.47;2.63;;;;;;;-143.84;28.13;45014.78;5050527;28;20491;-69
2022/03/23 10:35:45;;;;;;;10.87;2.67;;;;;;;-143.84;28.39;45066.22;5050175;28;20421;-69
2022/03/23 10:38:14;;;;;;;11.70;2.10;;;;;;;-143.84;28.28;45030.03;5050325;28;20459;-69
2022/03/23 10:40:43;;;;;;;3.80;2.00;;;;;;;-143.84;29.10;45033.84;5050653;28;20483;-69
2022/03/23 10:43:12;;;;;;;24.53;2.73;;;;;;;-143.84;27.84;45022.41;5050227;28;20976;-69
2022/03/23 10:45:39;;;;;;;18.07;2.50;;;;;;;-143.84;27.76;45028.13;5050328;28;20439;-69
2022/03/23 10:48:12;;;;;;;17.30;2.50;;;;;;;-143.84;26.94;45031.94;5049963;28;20561;-69
2022/03/23 10:50:50;;;;;;;14.53;2.57;;;;;;;-143.84;27.16;45030.03;5050365;28;20463;-69
2022/03/23 10:53:17;;;;;;;16.10;2.87;;;;;;;-143.84;25.90;45020.50;5050011;28;20433;-69
2022/03/23 10:55:49;;;;;;;38.10;2.60;;;;;;;-143.84;25.87;45022.41;5050457;28;20446;-69
2022/03/23 10:58:22;;;;;;;13.00;2.43;;;;;;;-143.84;26.70;45030.03;5050073;28;20511;-69
2022/03/23 11:00:50;;;;;;;16.07;2.10;;;;;;;-143.84;26.64;45031.94;5050016;28;20528;-69
2022/03/23 11:03:17;;;;;;;13.40;1.70;;;;;;;-143.84;25.94;45033.84;5049990;28;21024;-69
2022/03/23 11:05:46;;;;;;;11.43;2.30;;;;;;;-143.84;26.09;45033.84;5050004;28;20871;-69
2022/03/23 11:08:15;;;;;;;7.63;1.93;;;;;;;-143.84;26.39;45045.25;5050153;28;20477;-69
2022/03/23 11:16:22;;;;;;;5.60;2.40;;;;;;;-143.84;27.03;45033.84;5049952;28;20480;-69
2022/03/23 11:18:50;;;;;;;5.50;2.10;;;;;;;-143.84;27.96;45035.75;5049845;28;20453;-69
2022/03/23 11:21:17;;;;;;;11.30;2.70;;;;;;;-143.84;26.30;45052.88;5049853;28;20863;-69
2022/03/23 11:23:44;;;;;;;6.93;2.10;;;;;;;-143.84;26.25;45031.94;5049681;28;21256;-69
2022/03/23 11:26:12;;;;;;;8.60;2.00;;;;;;;-143.84;26.17;45020.50;5049886;28;20440;-69
2022/03/23 11:28:43;;;;;;;12.23;2.13;;;;;;;-143.84;26.16;45018.59;5049471;28;20481;-69
2022/03/23 11:31:12;;;;;;;10.00;2.23;;;;;;;-143.84;26.37;45016.69;5049972;28;20456;-69
2022/03/23 11:33:40;;;;;;;7.20;2.13;;;;;;;-143.84;26.42;45030.03;5049170;28;20443;-69
2022/03/23 11:36:11;;;;;;;14.10;2.23;;;;;;;-143.84;27.28;45043.34;5049045;28;20929;-69
2022/03/23 11:38:39;;;;;;;8.87;2.67;;;;;;;-143.84;26.08;45039.53;5049229;28;20449;-69
2022/03/23 11:41:08;;;;;;;7.87;2.10;;;;;;;-143.84;27.33;45045.25;5049186;28;20439;-69